Time;durP1;ratioP1;P1;durP2;ratioP2;P2;SDS_P1;SDS_P2;PMS_P1;PMS_P2;Temp;Humidity;BMP_temperature;BMP_pressure;BME280_temperature;BME280_humidity;BME280_pressure;Samples;Min_cycle;Max_cycle;Signal;HPM_P1;HPM_P2
2022/07/27 00:00:41;;;;;;;23.95;13.13;;;;;;;26.41;42.01;94724.53;5082374;28;20122;-86
2022/07/27 00:03:07;;;;;;;18.85;13.10;;;;;;;26.26;42.75;94739.25;5082563;28;20380;-86
2022/07/27 00:05:32;;;;;;;20.17;13.60;;;;;;;26.52;43.25;94792.56;5082535;28;20032;-86
2022/07/27 00:07:58;;;;;;;21.15;13.48;;;;;;;25.89;43.08;94679.72;5100784;28;20500;-86
2022/07/27 00:10:23;;;;;;;18.85;14.05;;;;;;;25.42;43.02;94634.50;5101304;28;20039;-86
2022/07/27 00:12:49;;;;;;;17.02;13.13;;;;;;;26.80;43.16;94841.59;5081864;28;20032;-86
2022/07/27 00:15:14;;;;;;;16.80;14.18;;;;;;;25.96;43.26;94731.34;5100642;28;20040;-86
2022/07/27 00:17:40;;;;;;;16.00;13.55;;;;;;;25.89;43.86;94752.28;5082268;28;20031;-86
2022/07/27 00:20:05;;;;;;;19.40;12.98;;;;;;;26.29;43.57;94800.25;5100858;28;20458;-86
2022/07/27 00:22:31;;;;;;;18.77;13.60;;;;;;;26.03;44.11;94774.88;5081649;28;20035;-86
2022/07/27 00:24:56;;;;;;;21.88;13.18;;;;;;;26.21;43.64;94796.69;5081539;28;20135;-86
2022/07/27 00:27:22;;;;;;;17.42;12.93;;;;;;;25.96;43.55;94774.03;5081515;28;20149;-86
2022/07/27 00:29:47;;;;;;;22.95;13.32;;;;;;;25.75;43.76;94742.13;5083465;28;20040;-86
2022/07/27 00:32:13;;;;;;;18.92;13.70;;;;;;;25.73;43.46;94733.59;5084307;28;20032;-86
2022/07/27 00:34:38;;;;;;;17.42;13.98;;;;;;;25.99;43.75;94784.16;5085084;28;20035;-86
2022/07/27 00:37:04;;;;;;;25.60;13.30;;;;;;;26.07;43.48;94775.66;5082878;28;20211;-86
2022/07/27 00:39:29;;;;;;;16.92;12.95;;;;;;;25.97;43.84;94795.41;5082256;28;20051;-86
2022/07/27 00:41:55;;;;;;;17.08;13.20;;;;;;;26.17;43.86;94835.91;5082167;28;20035;-86
2022/07/27 00:44:27;;;;;;;16.88;13.13;;;;;;;25.95;43.88;94811.31;5100085;28;20040;-86
2022/07/27 00:46:53;;;;;;;24.30;13.23;;;;;;;25.86;43.19;94796.53;5082711;28;20371;-86
2022/07/27 00:49:19;;;;;;;19.95;13.63;;;;;;;25.95;43.92;94816.75;5081348;28;20032;-86
2022/07/27 00:51:44;;;;;;;17.58;12.63;;;;;;;25.76;43.34;94787.16;5100134;28;20043;-86
2022/07/27 00:54:10;;;;;;;17.17;11.73;;;;;;;26.13;43.44;94847.50;5081002;28;20027;-86
2022/07/27 00:56:36;;;;;;;16.05;12.57;;;;;;;25.94;43.27;94831.47;5079721;28;20040;-86
2022/07/27 00:59:02;;;;;;;16.38;12.73;;;;;;;26.19;43.32;94872.38;5081318;28;20553;-86
2022/07/27 01:01:27;;;;;;;20.10;13.15;;;;;;;25.32;42.96;94716.66;5080413;28;20036;-86
2022/07/27 01:03:53;;;;;;;14.57;12.02;;;;;;;26.30;43.20;94873.25;5080681;28;20036;-86
2022/07/27 01:06:18;;;;;;;22.60;13.35;;;;;;;24.91;43.42;94653.56;5081521;28;20039;-86
2022/07/27 01:08:44;;;;;;;14.40;12.43;;;;;;;25.13;44.16;94736.66;5081813;28;20031;-86
2022/07/27 01:11:10;;;;;;;15.25;12.35;;;;;;;25.75;44.26;94831.75;5100908;28;20046;-86
2022/07/27 01:13:36;;;;;;;14.52;12.05;;;;;;;24.74;44.14;94701.06;5082305;28;20163;-85
2022/07/27 01:16:04;;;;;;;13.52;12.05;;;;;;;23.49;43.80;94478.94;5101551;28;20576;-85
2022/07/27 01:18:36;;;;;;;21.83;11.98;;;;;;;25.61;42.95;94809.94;5099355;28;20138;-85
2022/07/27 01:21:05;;;;;;;16.42;12.10;;;;;;;26.01;42.84;94871.53;5100417;28;20046;-85
2022/07/27 01:23:33;;;;;;;15.00;11.52;;;;;;;25.22;42.85;94752.63;5081626;28;20127;-85
2022/07/27 01:26:00;;;;;;;12.77;11.40;;;;;;;25.47;42.48;94790.81;5081044;28;20073;-85
2022/07/27 01:28:26;;;;;;;17.73;10.85;;;;;;;25.56;44.04;94869.97;5082826;28;20035;-85
2022/07/27 01:30:53;;;;;;;17.52;12.80;;;;;;;25.18;43.74;94798.72;5102229;28;20114;-86
2022/07/27 01:33:24;;;;;;;15.73;11.68;;;;;;;25.43;43.99;94833.44;5099835;28;20538;-85
2022/07/27 01:35:52;;;;;;;18.13;10.98;;;;;;;25.76;43.64;94874.06;5100570;28;20441;-85
2022/07/27 01:38:17;;;;;;;13.48;10.98;;;;;;;25.10;43.43;94767.25;5082659;28;20063;-85
2022/07/27 01:40:42;;;;;;;15.30;11.43;;;;;;;24.95;44.97;94814.41;5084545;28;20039;-85
2022/07/27 01:43:08;;;;;;;16.30;11.80;;;;;;;25.55;44.89;94890.94;5100847;28;20043;-86
2022/07/27 01:45:33;;;;;;;22.63;11.68;;;;;;;25.23;44.71;94833.66;5100113;28;20035;-85
2022/07/27 01:47:59;;;;;;;13.95;10.57;;;;;;;25.30;44.24;94813.94;5076115;28;20040;-85
2022/07/27 01:50:24;;;;;;;16.75;12.10;;;;;;;24.87;44.25;94758.53;5076833;28;20040;-85
2022/07/27 01:52:50;;;;;;;18.05;12.38;;;;;;;25.57;44.49;94864.19;5077665;28;20036;-85
2022/07/27 01:55:15;;;;;;;17.92;11.63;;;;;;;25.41;44.40;94839.22;5078328;28;20224;-85
2022/07/27 01:57:41;;;;;;;17.27;11.88;;;;;;;25.48;44.50;94860.25;5076951;28;20434;-85
2022/07/27 02:00:10;;;;;;;16.27;12.55;;;;;;;25.74;44.42;94884.50;5078355;28;20370;-85
2022/07/27 02:02:35;;;;;;;17.42;13.35;;;;;;;25.18;44.88;94803.38;5077842;28;20040;-85
2022/07/27 02:05:01;;;;;;;17.77;13.15;;;;;;;25.54;45.41;94883.97;5076471;28;20540;-85
2022/07/27 02:07:26;;;;;;;17.17;13.35;;;;;;;25.35;45.43;94868.66;5078550;28;20516;-85
2022/07/27 02:09:52;;;;;;;20.35;13.65;;;;;;;25.29;45.13;94851.16;5077521;28;20036;-85
2022/07/27 02:12:36;;;;;;;15.98;12.55;;;;;;;24.84;45.25;94770.13;5075980;28;20032;-85
2022/07/27 02:15:07;;;;;;;21.50;14.00;;;;;;;25.29;45.66;94856.59;5076675;28;20031;-85
2022/07/27 02:17:33;;;;;;;15.90;12.88;;;;;;;25.21;45.30;94848.75;5076140;28;20524;-85
2022/07/27 02:19:59;;;;;;;16.05;12.07;;;;;;;24.97;46.44;94837.31;5076207;28;20040;-85
2022/07/27 02:22:24;;;;;;;16.50;12.45;;;;;;;24.99;46.27;94858.63;5077657;28;20119;-85
2022/07/27 02:24:50;;;;;;;17.90;13.13;;;;;;;24.81;46.12;94812.31;5076638;28;20044;-85
2022/07/27 02:27:15;;;;;;;17.20;12.02;;;;;;;24.51;45.68;94787.22;5077933;28;20097;-85
2022/07/27 02:29:41;;;;;;;16.05;12.55;;;;;;;25.14;45.83;94892.13;5076331;28;20377;-85
2022/07/27 02:32:06;;;;;;;13.88;12.38;;;;;;;24.45;45.58;94772.44;5078020;28;20049;-85
2022/07/27 02:34:32;;;;;;;18.48;13.10;;;;;;;24.60;45.25;94810.16;5076897;28;20497;-85
2022/07/27 02:36:57;;;;;;;14.35;12.25;;;;;;;25.16;44.59;94882.47;5078973;28;20044;-85
2022/07/27 02:39:23;;;;;;;17.10;12.30;;;;;;;23.98;45.04;94792.75;5096676;28;20410;-86
2022/07/27 02:41:48;;;;;;;14.23;11.23;;;;;;;24.46;44.89;94836.34;5079551;28;20074;-85
2022/07/27 02:44:16;;;;;;;17.48;11.52;;;;;;;25.01;44.86;94890.81;5079932;28;20109;-85
2022/07/27 02:46:42;;;;;;;13.90;12.40;;;;;;;24.48;44.92;94842.19;5098669;28;20470;-86
2022/07/27 02:49:07;;;;;;;13.80;12.05;;;;;;;24.78;44.63;94875.44;5080276;28;20043;-86
2022/07/27 02:51:33;;;;;;;22.05;11.30;;;;;;;24.28;44.36;94803.59;5080979;28;20042;-85
2022/07/27 02:53:58;;;;;;;20.38;12.57;;;;;;;24.68;43.76;94850.91;5097867;28;20467;-85
2022/07/27 02:56:24;;;;;;;16.70;11.60;;;;;;;24.40;43.25;94776.28;5091217;28;20470;-85
2022/07/27 02:58:49;;;;;;;17.15;11.48;;;;;;;25.04;42.83;94879.22;5079827;28;20061;-85
2022/07/27 03:01:15;;;;;;;15.88;11.68;;;;;;;24.04;42.45;94733.63;5079474;28;20233;-85
2022/07/27 03:03:40;;;;;;;16.92;10.90;;;;;;;24.74;42.71;94844.78;5079661;28;20036;-86
2022/07/27 03:06:07;;;;;;;16.65;10.85;;;;;;;24.44;42.50;94796.03;5077726;28;20040;-85
2022/07/27 03:08:33;;;;;;;13.60;10.90;;;;;;;24.60;42.66;94829.16;5079577;28;20231;-86
2022/07/27 03:10:58;;;;;;;16.40;11.50;;;;;;;24.40;42.23;94805.31;5078576;28;20569;-85
2022/07/27 03:13:25;;;;;;;15.35;11.05;;;;;;;24.62;42.53;94842.34;5079651;28;20116;-85
2022/07/27 03:15:51;;;;;;;14.40;11.32;;;;;;;24.97;42.75;94915.97;5079855;28;20130;-86
2022/07/27 03:18:16;;;;;;;14.90;11.32;;;;;;;24.74;42.76;94861.06;5071121;28;20032;-85
2022/07/27 03:20:42;;;;;;;15.30;11.52;;;;;;;24.91;42.74;94901.19;5098655;28;20065;-85
2022/07/27 03:23:07;;;;;;;15.93;11.02;;;;;;;25.09;42.85;94954.88;5079827;28;20062;-85
2022/07/27 03:25:33;;;;;;;16.27;11.63;;;;;;;23.90;42.92;94764.03;5102122;28;20044;-85
2022/07/27 03:27:58;;;;;;;17.92;11.63;;;;;;;24.34;42.93;94820.31;5102118;28;20039;-86
2022/07/27 03:30:24;;;;;;;17.98;11.18;;;;;;;23.81;43.30;94750.75;5084244;28;20968;-86
2022/07/27 03:32:49;;;;;;;20.20;11.07;;;;;;;24.58;43.67;94866.69;5083002;28;20040;-85
2022/07/27 03:35:15;;;;;;;18.65;11.88;;;;;;;24.87;43.64;94902.28;5082716;28;20035;-86
2022/07/27 03:37:41;;;;;;;14.65;11.27;;;;;;;24.14;43.03;94784.44;5082733;28;20270;-85
2022/07/27 03:40:07;;;;;;;14.65;11.68;;;;;;;24.60;43.58;94866.31;5082923;28;20043;-85
2022/07/27 03:42:32;;;;;;;12.18;10.95;;;;;;;23.48;43.65;94702.00;5094769;28;20040;-85
2022/07/27 03:44:58;;;;;;;14.43;11.30;;;;;;;24.23;43.65;94833.75;5080275;28;20120;-85
2022/07/27 03:47:23;;;;;;;16.33;11.27;;;;;;;23.59;43.16;94715.66;5082362;28;20046;-85
2022/07/27 03:49:51;;;;;;;14.68;11.65;;;;;;;25.02;43.23;94933.88;5082572;28;20104;-85
2022/07/27 03:52:17;;;;;;;18.27;11.32;;;;;;;24.40;43.16;94840.53;5101212;28;20502;-85
2022/07/27 03:54:42;;;;;;;14.98;11.75;;;;;;;24.59;43.78;94887.22;5100888;28;20443;-85
2022/07/27 03:57:08;;;;;;;16.80;11.90;;;;;;;24.94;43.16;94949.28;5082203;28;20514;-85
2022/07/27 03:59:33;;;;;;;16.35;11.48;;;;;;;24.33;43.74;94892.72;5101762;28;20043;-85
2022/07/27 04:01:59;;;;;;;16.67;11.50;;;;;;;23.97;43.69;94782.28;5082514;28;20175;-85
2022/07/27 04:04:24;;;;;;;17.10;11.75;;;;;;;24.42;43.81;94841.72;5102496;28;20043;-84
2022/07/27 04:06:49;;;;;;;15.68;12.32;;;;;;;24.28;43.89;94821.78;5082975;28;20436;-85
2022/07/27 04:09:15;;;;;;;16.50;11.43;;;;;;;24.79;43.25;94887.84;5082756;28;20036;-86
2022/07/27 04:11:42;;;;;;;21.10;12.73;;;;;;;24.68;43.15;94869.91;5082842;28;20425;-86
2022/07/27 04:14:07;;;;;;;13.40;11.32;;;;;;;24.89;43.66;94903.44;5099058;28;20181;-85
2022/07/27 04:16:33;;;;;;;19.08;13.40;;;;;;;25.04;43.79;94942.38;5094846;28;20114;-84
2022/07/27 04:18:58;;;;;;;21.27;13.77;;;;;;;24.57;43.40;94851.56;5100634;28;20651;-85
2022/07/27 04:21:23;;;;;;;19.45;13.15;;;;;;;24.68;43.33;94859.81;5082170;28;20291;-86
2022/07/27 04:23:49;;;;;;;20.17;13.05;;;;;;;25.13;43.69;94925.81;5082470;28;20830;-85
2022/07/27 04:26:14;;;;;;;19.73;12.82;;;;;;;25.22;43.36;94899.16;5082522;28;20040;-85
2022/07/27 04:28:41;;;;;;;22.45;12.85;;;;;;;24.58;42.51;94828.72;5082236;28;20037;-85
2022/07/27 04:31:06;;;;;;;24.08;12.55;;;;;;;24.99;42.64;94854.00;5082433;28;20043;-85
2022/07/27 04:33:32;;;;;;;25.10;12.65;;;;;;;25.36;42.04;94897.38;5081275;28;20527;-85
2022/07/27 04:35:57;;;;;;;24.10;12.57;;;;;;;25.69;41.75;94948.13;5098104;28;20046;-86
2022/07/27 04:38:23;;;;;;;20.10;11.68;;;;;;;25.37;41.50;94893.50;5071589;28;20060;-85
2022/07/27 04:40:48;;;;;;;22.85;11.60;;;;;;;25.60;41.52;94930.56;5078462;28;20047;-85
2022/07/27 04:43:14;;;;;;;17.20;11.02;;;;;;;25.68;40.75;94910.47;5079304;28;20040;-86
2022/07/27 04:45:39;;;;;;;26.55;11.95;;;;;;;25.41;40.72;94844.66;5078408;28;20039;-85
2022/07/27 04:48:06;;;;;;;21.55;11.55;;;;;;;25.77;41.12;94886.50;5079717;28;20046;-86
2022/07/27 04:50:31;;;;;;;24.02;11.40;;;;;;;25.90;41.68;94901.31;5078145;28;20044;-85
2022/07/27 04:52:57;;;;;;;20.52;10.52;;;;;;;26.00;41.05;94946.03;5078277;28;20418;-85
2022/07/27 04:55:22;;;;;;;21.30;11.25;;;;;;;25.53;41.11;94846.31;5078479;28;20036;-85
2022/07/27 04:57:48;;;;;;;21.98;10.88;;;;;;;25.97;40.89;94925.81;5081114;28;20142;-85
2022/07/27 05:00:14;;;;;;;20.98;10.93;;;;;;;26.32;40.86;94966.06;5081142;27;20256;-85
2022/07/27 05:02:40;;;;;;;29.40;10.93;;;;;;;25.97;40.71;94930.47;5061915;28;20040;-85
2022/07/27 05:05:07;;;;;;;30.77;11.35;;;;;;;25.90;40.90;94892.38;5059459;28;20046;-85
2022/07/27 05:07:32;;;;;;;19.63;11.52;;;;;;;25.43;41.28;94860.56;5078531;28;20063;-84
2022/07/27 05:09:58;;;;;;;20.58;11.13;;;;;;;25.38;42.14;94873.34;5057639;28;20570;-84
2022/07/27 05:12:23;;;;;;;21.77;10.57;;;;;;;25.59;42.40;94923.56;5061387;28;20059;-85
2022/07/27 05:14:49;;;;;;;26.10;11.05;;;;;;;25.20;43.16;94885.19;5077695;28;20055;-85
2022/07/27 05:17:14;;;;;;;26.08;11.13;;;;;;;25.31;43.11;94886.09;5077988;28;20134;-85
2022/07/27 05:19:40;;;;;;;26.17;10.25;;;;;;;25.47;43.46;94923.84;5076735;28;20036;-85
2022/07/27 05:22:05;;;;;;;25.08;11.00;;;;;;;25.80;43.84;94986.22;5071735;28;20037;-85
2022/07/27 05:24:30;;;;;;;25.00;11.23;;;;;;;25.23;44.04;94900.72;5076134;27;20414;-85
2022/07/27 05:26:56;;;;;;;27.73;10.90;;;;;;;25.48;43.82;94911.84;5059978;28;20864;-85
2022/07/27 05:29:21;;;;;;;29.25;10.05;;;;;;;25.50;44.08;94934.72;5061597;28;20470;-85
2022/07/27 05:31:47;;;;;;;24.45;10.40;;;;;;;24.98;44.06;94833.44;5079399;28;20047;-85
2022/07/27 05:34:12;;;;;;;17.30;9.50;;;;;;;25.74;44.40;94941.56;5053406;28;20047;-85
2022/07/27 05:36:38;;;;;;;22.27;10.63;;;;;;;24.53;44.28;94745.03;5051850;28;20038;-85
2022/07/27 05:39:04;;;;;;;22.38;9.70;;;;;;;25.68;44.41;94913.19;5059016;28;20063;-85
2022/07/27 05:41:29;;;;;;;29.80;11.30;;;;;;;25.07;44.45;94816.84;5080068;28;20074;-85
2022/07/27 05:43:55;;;;;;;40.25;10.48;;;;;;;25.62;44.32;94885.59;5060698;28;20123;-84
2022/07/27 05:46:21;;;;;;;27.67;10.32;;;;;;;25.31;44.45;94829.88;5060427;28;20039;-85
2022/07/27 05:48:46;;;;;;;24.13;10.75;;;;;;;26.15;44.61;94958.56;5061274;28;20044;-85
2022/07/27 05:51:12;;;;;;;23.08;8.23;;;;;;;25.45;45.69;94888.91;5078570;28;20043;-85
2022/07/27 05:53:37;;;;;;;25.77;7.97;;;;;;;25.34;46.01;94901.59;5099381;27;20098;-85
2022/07/27 05:56:03;;;;;;;25.25;8.93;;;;;;;25.22;46.09;94869.31;5076616;28;20036;-84
2022/07/27 05:58:29;;;;;;;22.40;8.82;;;;;;;25.28;45.93;94878.69;5069239;28;20047;-85
2022/07/27 06:00:57;;;;;;;18.65;8.20;;;;;;;25.21;46.27;94892.97;5098118;28;20036;-85
2022/07/27 06:03:23;;;;;;;19.15;8.75;;;;;;;25.52;46.83;94951.41;5079943;28;20548;-84
2022/07/27 06:05:49;;;;;;;22.08;8.50;;;;;;;25.81;46.89;94995.94;5079840;28;20125;-85
2022/07/27 06:08:14;;;;;;;23.15;8.38;;;;;;;25.51;46.50;94947.13;5079577;28;20059;-85
2022/07/27 06:10:40;;;;;;;15.70;7.68;;;;;;;25.40;46.87;94965.28;5079781;28;20346;-85
2022/07/27 06:13:09;;;;;;;25.35;9.85;;;;;;;25.68;46.70;94979.16;5080254;28;20558;-85
2022/07/27 06:15:35;;;;;;;20.95;8.82;;;;;;;25.17;47.10;94908.44;5079423;28;20107;-85
2022/07/27 06:18:02;;;;;;;16.73;9.13;;;;;;;25.20;47.15;94883.25;5079851;28;20036;-86
2022/07/27 06:20:29;;;;;;;21.10;8.48;;;;;;;25.93;46.88;94992.16;5099288;28;20039;-85
2022/07/27 06:22:58;;;;;;;23.35;8.82;;;;;;;25.13;46.87;94869.63;5098430;28;20039;-85
2022/07/27 06:25:25;;;;;;;24.00;8.55;;;;;;;24.93;46.97;94839.22;5067838;28;20507;-85
2022/07/27 06:27:51;;;;;;;16.38;9.13;;;;;;;25.91;46.80;94991.75;5069172;28;20340;-86
2022/07/27 06:30:19;;;;;;;23.90;9.48;;;;;;;24.09;46.88;94698.09;5077669;28;20334;-85
2022/07/27 06:32:45;;;;;;;20.05;8.68;;;;;;;25.36;46.28;94897.38;5088573;28;20084;-86
2022/07/27 06:35:11;;;;;;;15.98;8.82;;;;;;;25.82;46.42;94975.78;5077568;28;20055;-86
2022/07/27 06:37:42;;;;;;;18.92;8.50;;;;;;;25.85;46.47;94982.41;5099024;28;20059;-85
2022/07/27 06:40:08;;;;;;;;;;;;;;;25.93;47.29;95003.03;5120118;28;20496;-85
2022/07/27 06:42:33;;;;;;;15.10;8.80;;;;;;;25.41;46.80;94928.81;5099270;28;19923;-86
2022/07/27 06:44:59;;;;;;;23.52;9.35;;;;;;;25.55;46.70;94956.13;5099792;28;20039;-85
2022/07/27 06:47:24;;;;;;;21.95;8.80;;;;;;;25.15;47.00;94934.38;5117949;28;20118;-86
2022/07/27 06:49:50;;;;;;;16.40;8.88;;;;;;;25.51;47.06;94963.44;5099607;28;20085;-86
2022/07/27 06:52:15;;;;;;;18.33;8.93;;;;;;;25.01;46.83;94916.03;5098736;28;20035;-86
2022/07/27 06:54:41;;;;;;;17.75;9.32;;;;;;;24.58;47.00;94817.09;5087700;28;20171;-85
2022/07/27 06:57:06;;;;;;;17.45;10.30;;;;;;;25.12;47.02;94897.91;5067983;28;20514;-85
2022/07/27 06:59:33;;;;;;;16.38;8.68;;;;;;;23.76;47.55;94682.63;5061637;28;20043;-85
2022/07/27 07:01:58;;;;;;;16.38;9.52;;;;;;;25.68;47.54;94973.72;5068526;28;20070;-86
2022/07/27 07:04:24;;;;;;;20.55;9.32;;;;;;;25.85;47.50;94969.59;5063639;28;20815;-86
2022/07/27 07:06:49;;;;;;;20.02;8.90;;;;;;;25.39;46.85;94923.00;5062831;28;20150;-85
2022/07/27 07:09:15;;;;;;;15.75;9.50;;;;;;;25.99;46.42;94986.00;5065898;28;20529;-85
2022/07/27 07:11:40;;;;;;;14.38;9.27;;;;;;;25.89;46.20;94964.19;5064118;28;20154;-85
2022/07/27 07:14:06;;;;;;;24.98;9.75;;;;;;;25.24;46.29;94872.44;5104845;27;20027;-86
2022/07/27 07:16:31;;;;;;;16.77;8.95;;;;;;;25.71;46.32;94929.50;5081147;27;20371;-85
2022/07/27 07:18:57;;;;;;;21.38;9.32;;;;;;;25.07;46.18;94835.06;5083219;28;20038;-85
2022/07/27 07:21:22;;;;;;;19.83;8.77;;;;;;;25.52;46.10;94880.81;5082522;28;20058;-85
2022/07/27 07:23:48;;;;;;;16.83;8.90;;;;;;;26.03;45.09;94935.19;5082924;28;20089;-86
2022/07/27 07:26:13;;;;;;;22.10;9.07;;;;;;;25.89;45.37;94929.66;5084153;28;20039;-85
2022/07/27 07:28:38;;;;;;;22.05;9.38;;;;;;;26.33;44.38;94983.16;5083228;28;20410;-85
2022/07/27 07:31:04;;;;;;;21.08;9.20;;;;;;;25.55;44.89;94863.81;5082497;27;20035;-85
2022/07/27 07:33:29;;;;;;;23.08;8.50;;;;;;;25.63;45.72;94905.41;5102328;27;20031;-86
2022/07/27 07:35:55;;;;;;;16.98;8.80;;;;;;;25.08;45.93;94840.13;5099520;27;20039;-85
2022/07/27 07:38:20;;;;;;;22.13;8.73;;;;;;;25.89;46.35;94928.84;5082605;28;20560;-85
2022/07/27 07:40:46;;;;;;;19.58;9.20;;;;;;;25.86;45.51;94919.53;5100900;28;20485;-85
2022/07/27 07:43:12;;;;;;;24.23;9.40;;;;;;;26.40;45.06;94973.09;5084722;28;20040;-86
2022/07/27 07:45:38;;;;;;;23.38;9.57;;;;;;;25.87;44.58;94865.97;5082644;28;20152;-86
2022/07/27 07:48:05;;;;;;;22.92;9.55;;;;;;;26.49;44.50;94957.25;5082819;28;20583;-86
2022/07/27 07:50:31;;;;;;;22.98;9.95;;;;;;;26.73;43.74;94974.06;5092671;27;20048;-86
2022/07/27 07:52:57;;;;;;;25.75;8.35;;;;;;;26.83;43.21;94970.63;5115503;27;20031;-86
2022/07/27 07:55:24;;;;;;;17.63;8.68;;;;;;;26.39;42.32;94894.66;5103549;27;20150;-85
2022/07/27 07:57:51;;;;;;;19.77;9.00;;;;;;;26.75;42.47;94950.00;5103663;27;20386;-85
2022/07/27 08:00:17;;;;;;;19.25;9.10;;;;;;;27.13;42.27;94971.19;5118964;27;20393;-86
2022/07/27 08:02:51;;;;;;;13.85;8.65;;;;;;;27.17;40.40;94971.94;5066559;28;20047;-86
2022/07/27 08:05:17;;;;;;;23.05;9.02;;;;;;;27.24;40.39;94980.13;5061949;28;20146;-86
2022/07/27 08:07:43;;;;;;;18.15;8.52;;;;;;;27.18;41.67;94956.41;5092490;27;20041;-86
2022/07/27 08:10:10;;;;;;;21.40;9.10;;;;;;;26.72;41.29;94869.16;5114604;27;20049;-86
2022/07/27 08:12:38;;;;;;;18.50;9.02;;;;;;;27.53;40.57;94966.63;5121794;27;20068;-86
2022/07/27 08:15:05;;;;;;;17.73;8.63;;;;;;;27.53;40.98;94981.03;5103127;27;20130;-86
2022/07/27 08:17:30;;;;;;;17.70;9.50;;;;;;;27.22;40.73;94917.16;5102407;27;20039;-86
2022/07/27 08:19:56;;;;;;;16.02;8.07;;;;;;;27.73;40.06;94975.22;5102091;27;20453;-86
2022/07/27 08:22:21;;;;;;;18.58;8.65;;;;;;;27.29;40.42;94891.88;5104047;27;20039;-86
2022/07/27 08:24:47;;;;;;;16.27;9.07;;;;;;;27.14;40.38;94849.47;5100886;27;20035;-86
2022/07/27 08:27:12;;;;;;;18.20;9.43;;;;;;;28.05;40.29;94965.09;5103761;27;20035;-86
2022/07/27 08:29:38;;;;;;;14.60;8.80;;;;;;;27.58;40.12;94865.47;5101788;27;20039;-86
2022/07/27 08:32:04;;;;;;;20.85;8.77;;;;;;;27.88;38.75;94911.38;5096389;28;20043;-86
2022/07/27 08:34:29;;;;;;;18.45;8.60;;;;;;;27.61;38.34;94889.22;5089252;28;20036;-86
2022/07/27 08:36:55;;;;;;;14.30;8.02;;;;;;;27.51;37.89;94833.53;5097687;28;20042;-86
2022/07/27 08:39:21;;;;;;;24.05;9.13;;;;;;;28.00;38.31;94902.78;5081695;28;20167;-86
2022/07/27 08:41:47;;;;;;;16.55;8.00;;;;;;;28.07;38.50;94891.91;5082396;28;20403;-86
2022/07/27 08:44:13;;;;;;;18.63;8.00;;;;;;;28.33;38.13;94921.47;5101443;28;20044;-86
2022/07/27 08:46:41;;;;;;;20.85;8.38;;;;;;;27.93;38.52;94870.09;5075512;28;20036;-86
2022/07/27 08:49:07;;;;;;;23.10;8.40;;;;;;;27.86;38.17;94831.97;5105435;27;20031;-86
2022/07/27 08:51:33;;;;;;;22.40;8.77;;;;;;;28.43;38.09;94928.09;5095458;28;20144;-86
2022/07/27 08:53:59;;;;;;;22.55;8.05;;;;;;;28.46;36.58;94934.69;5068141;28;20028;-86
2022/07/27 08:56:25;;;;;;;20.45;8.48;;;;;;;28.53;36.73;94921.81;5073661;28;20576;-86
2022/07/27 08:58:50;;;;;;;14.73;8.40;;;;;;;28.38;37.07;94876.66;5080210;28;20135;-86
2022/07/27 09:01:16;;;;;;;23.70;8.77;;;;;;;28.64;37.04;94889.03;5066630;28;20035;-86
2022/07/27 09:03:41;;;;;;;17.52;8.50;;;;;;;28.54;36.82;94846.19;5081457;28;20052;-86
2022/07/27 09:06:07;;;;;;;17.10;8.05;;;;;;;28.69;37.42;94866.78;5088605;27;20325;-86
2022/07/27 09:08:34;;;;;;;20.17;7.78;;;;;;;28.80;36.48;94919.41;5103902;27;20374;-86
2022/07/27 09:11:02;;;;;;;21.45;8.93;;;;;;;28.49;36.06;94825.56;5079332;28;20164;-86
2022/07/27 09:13:30;;;;;;;11.95;7.38;;;;;;;29.12;35.59;94906.41;5079563;28;20027;-86
2022/07/27 09:15:57;;;;;;;11.93;8.15;;;;;;;28.76;34.94;94834.81;5080828;28;20163;-86
2022/07/27 09:18:26;;;;;;;21.85;8.38;;;;;;;29.25;34.31;94923.09;5081503;28;20040;-86
2022/07/27 09:21:15;;;;;;;22.67;8.27;;;;;;;29.23;34.03;94914.50;5068073;28;20476;-85
2022/07/27 09:23:55;;;;;;;15.38;8.05;;;;;;;28.97;34.36;94846.81;5066498;28;20040;-85
2022/07/27 09:26:25;;;;;;;10.57;7.57;;;;;;;27.77;33.35;94673.59;5069441;28;20047;-85
2022/07/27 09:29:00;;;;;;;17.23;8.38;;;;;;;29.56;33.73;94921.38;5069985;28;20028;-86
2022/07/27 09:31:26;;;;;;;17.85;7.85;;;;;;;28.93;33.31;94824.97;5073098;27;20115;-86
2022/07/27 09:33:54;;;;;;;18.65;7.80;;;;;;;28.84;34.13;94789.16;5119553;27;20042;-85
2022/07/27 09:36:22;;;;;;;17.77;9.32;;;;;;;28.93;33.29;94811.34;5100903;27;20278;-85
2022/07/27 09:39:01;;;;;;;19.65;8.27;;;;;;;29.76;33.48;94913.41;5086557;28;20067;-85
2022/07/27 09:41:38;;;;;;;21.77;8.15;;;;;;;29.37;33.68;94816.13;5061264;28;20036;-86
2022/07/27 09:44:03;;;;;;;14.45;8.20;;;;;;;29.64;33.57;94842.84;5060304;28;20047;-85
2022/07/27 09:46:32;;;;;;;15.10;8.70;;;;;;;29.09;32.41;94745.31;5077967;28;20036;-86
2022/07/27 09:48:57;;;;;;;16.02;7.60;;;;;;;30.16;32.90;94890.81;5078646;28;20040;-86
2022/07/27 09:51:24;;;;;;;12.75;7.38;;;;;;;29.74;33.29;94826.38;5080209;28;20420;-85
2022/07/27 09:53:51;;;;;;;14.43;7.85;;;;;;;30.40;31.90;94890.97;5075297;28;20494;-85
2022/07/27 09:56:16;;;;;;;25.95;8.07;;;;;;;30.85;31.18;94867.00;5065115;28;20320;-85
2022/07/27 09:58:48;;;;;;;18.23;8.57;;;;;;;31.34;30.47;94832.69;5091522;27;20532;-85
2022/07/27 10:01:25;;;;;;;18.70;8.00;;;;;;;31.95;28.87;94747.47;5082973;27;20061;-85
2022/07/27 10:03:55;;;;;;;13.93;7.30;;;;;;;33.73;27.74;94877.09;5107398;27;20202;-85
2022/07/27 10:06:21;;;;;;;9.65;7.35;;;;;;;34.76;26.43;94896.50;5083232;28;20044;-85
2022/07/27 10:08:49;;;;;;;12.23;7.05;;;;;;;35.42;25.52;94859.13;5080846;28;20039;-85
2022/07/27 10:11:16;;;;;;;14.60;7.85;;;;;;;35.51;24.62;94837.94;5097618;28;20049;-85
2022/07/27 10:13:42;;;;;;;14.68;6.80;;;;;;;35.77;24.21;94830.44;5090012;28;20040;-85
2022/07/27 10:16:12;;;;;;;19.55;7.28;;;;;;;36.92;23.55;94869.47;5079003;28;20207;-86
2022/07/27 10:19:06;;;;;;;10.38;6.65;;;;;;;37.49;22.74;94849.50;5080324;28;20421;-86
2022/07/27 10:21:36;;;;;;;9.70;6.80;;;;;;;38.21;22.25;94856.50;5087831;28;20561;-85
2022/07/27 10:24:07;;;;;;;11.63;6.70;;;;;;;38.38;21.54;94840.31;5073575;28;20124;-86
2022/07/27 10:26:41;;;;;;;10.75;6.80;;;;;;;38.94;21.02;94881.44;5076022;28;20155;-85
2022/07/27 10:29:12;;;;;;;18.83;6.95;;;;;;;38.99;20.93;94874.47;5083988;28;20100;-86
2022/07/27 10:31:40;;;;;;;19.00;7.43;;;;;;;38.84;20.82;94824.44;5076224;28;20040;-86
2022/07/27 10:34:08;;;;;;;16.95;6.88;;;;;;;39.12;20.49;94835.50;5066599;28;20130;-86
2022/07/27 10:36:33;;;;;;;9.77;6.30;;;;;;;39.92;20.47;94874.50;5080615;28;20153;-86
2022/07/27 10:39:08;;;;;;;12.57;6.57;;;;;;;39.41;19.29;94766.38;5082497;28;20351;-86
2022/07/27 10:41:39;;;;;;;9.77;6.28;;;;;;;40.08;19.53;94876.09;5082949;28;20584;-86
2022/07/27 10:44:17;;;;;;;14.02;6.60;;;;;;;40.36;18.99;94871.16;5082060;28;20038;-85
2022/07/27 10:47:05;;;;;;;24.95;7.57;;;;;;;40.09;19.30;94803.41;5080838;28;20044;-86
2022/07/27 10:49:36;;;;;;;10.15;6.43;;;;;;;40.55;18.76;94863.44;5080729;28;20040;-86
2022/07/27 10:52:03;;;;;;;12.02;6.88;;;;;;;40.55;19.09;94866.97;5082170;28;20036;-86
2022/07/27 10:54:37;;;;;;;9.73;6.32;;;;;;;40.04;19.72;94809.63;5081797;28;20097;-85
2022/07/27 10:57:04;;;;;;;10.15;6.68;;;;;;;40.60;18.25;94868.31;5074930;28;20081;-86
2022/07/27 10:59:39;;;;;;;16.42;7.00;;;;;;;40.45;18.58;94852.38;5084797;28;20074;-86
2022/07/27 11:02:06;;;;;;;12.35;7.22;;;;;;;40.51;18.30;94851.75;5081129;28;20046;-86
2022/07/27 11:04:33;;;;;;;14.13;6.85;;;;;;;39.70;18.75;94848.97;5063155;28;20062;-85
2022/07/27 11:07:00;;;;;;;7.82;6.68;;;;;;;39.60;19.06;94808.63;5068948;28;20097;-85
2022/07/27 11:09:36;;;;;;;14.25;7.13;;;;;;;39.69;18.71;94786.38;5082914;28;20063;-86
2022/07/27 11:12:04;;;;;;;11.43;6.47;;;;;;;40.47;18.88;94840.81;5101276;28;20063;-85
2022/07/27 11:14:30;;;;;;;11.57;6.72;;;;;;;40.09;19.01;94833.97;5101616;28;20080;-85
2022/07/27 11:16:57;;;;;;;12.60;7.25;;;;;;;40.26;19.01;94845.44;5101044;28;20138;-85
2022/07/27 11:19:23;;;;;;;10.90;7.32;;;;;;;39.77;17.98;94765.38;5081763;28;20039;-86